Cheikh El Mokrani — C6WD5 — position and weather

sailwx.info

Track history (hours):
 
Tides and Currents Weather Stations Pressure Air Temp Water Temp Dewpoint Dewpoint Depression Visibility Wind Speed Wind Dir Waves Ship Positions

Cheikh El Mokrani

Last reported at 2016-Sep-29 19:30 UTC. Time now 2016-Sep-29 20:23 UTC.
Position N 43°27' E 004°51'.

Length 220 m; draft 9.8 m.

Type: Ship (hazmat cat D). MMSI: 309979000.

Date/timePositionNaut miles runAvg speedWind from/ knotsBaromVisibWave heightAir tempDewpointWater temp
2016-Sep-29 19:30N 43°27' E 004°51'0 0.0
2016-Sep-29 16:21N 43°27' E 004°51'0 0.0
2016-Sep-29 15:33N 43°27' E 004°51'0 0.0
2016-Sep-29 14:21N 43°27' E 004°51'0 0.0
2016-Sep-29 13:21N 43°27' E 004°51'0 0.0
2016-Sep-29 08:30N 43°27' E 004°51'0 0.0
2016-Sep-29 07:33N 43°27' E 004°51'0 0.0
2016-Sep-28 21:09N 43°27' E 004°51'0 0.0
2016-Sep-28 19:09N 43°27' E 004°51'5 2.0
2016-Sep-28 16:33N 43°23' E 004°56'8 8.2
2016-Sep-28 15:33N 43°16' E 005°01'  
2016-Sep-23 01:11N 36°59' E 003°10'4 6.8
2016-Sep-23 00:33N 36°58' E 003°04'7 6.7
2016-Sep-22 23:27N 36°57' E 002°55'20 6.7
2016-Sep-22 20:31N 36°55' E 002°31'53 6.6
2016-Sep-22 12:32N 36°43' E 001°26'55 6.9
2016-Sep-22 04:32N 36°37' E 000°18'7 7.2
2016-Sep-22 03:33N 36°43' E 000°15'23 7.8
2016-Sep-22 00:33N 37°06' E 000°19'8 7.5
2016-Sep-21 23:33N 37°14' E 000°20'7 7.3
2016-Sep-21 22:33N 37°21' E 000°22'20 6.8
2016-Sep-21 19:33N 37°41' E 000°27'22 7.3
2016-Sep-21 16:33N 38°02' E 000°35'9212.9
2016-Sep-21 09:24N 39°29' W 000°03'1112.5
2016-Sep-21 08:32N 39°37' W 000°12'  
Track history (hours):
 
Tides and Currents Weather Stations Pressure Air Temp Water Temp Dewpoint Dewpoint Depression Visibility Wind Speed Wind Dir Waves Ship Positions

Cheikh El Mokrani

Last reported at 2016-Sep-29 19:30 UTC. Time now 2016-Sep-29 20:23 UTC.
Position N 43°27' E 004°51'.

Length 220 m; draft 9.8 m.

Type: Ship (hazmat cat D). MMSI: 309979000.

Date/timePositionNaut miles runAvg speedWind from/ knotsBaromVisibWave heightAir tempDewpointWater temp
2016-Sep-29 19:30N 43°27' E 004°51'0 0.0
2016-Sep-29 16:21N 43°27' E 004°51'0 0.0
2016-Sep-29 15:33N 43°27' E 004°51'0 0.0
2016-Sep-29 14:21N 43°27' E 004°51'0 0.0
2016-Sep-29 13:21N 43°27' E 004°51'0 0.0
2016-Sep-29 08:30N 43°27' E 004°51'0 0.0
2016-Sep-29 07:33N 43°27' E 004°51'0 0.0
2016-Sep-28 21:09N 43°27' E 004°51'0 0.0
2016-Sep-28 19:09N 43°27' E 004°51'5 2.0
2016-Sep-28 16:33N 43°23' E 004°56'8 8.2
2016-Sep-28 15:33N 43°16' E 005°01'  
2016-Sep-23 01:11N 36°59' E 003°10'4 6.8
2016-Sep-23 00:33N 36°58' E 003°04'7 6.7
2016-Sep-22 23:27N 36°57' E 002°55'20 6.7
2016-Sep-22 20:31N 36°55' E 002°31'53 6.6
2016-Sep-22 12:32N 36°43' E 001°26'55 6.9
2016-Sep-22 04:32N 36°37' E 000°18'7 7.2
2016-Sep-22 03:33N 36°43' E 000°15'23 7.8
2016-Sep-22 00:33N 37°06' E 000°19'8 7.5
2016-Sep-21 23:33N 37°14' E 000°20'7 7.3
2016-Sep-21 22:33N 37°21' E 000°22'20 6.8
2016-Sep-21 19:33N 37°41' E 000°27'22 7.3
2016-Sep-21 16:33N 38°02' E 000°35'9212.9
2016-Sep-21 09:24N 39°29' W 000°03'1112.5
2016-Sep-21 08:32N 39°37' W 000°12'  

Dump ship's entire track history